Time;durP1;ratioP1;P1;durP2;ratioP2;P2;SDS_P1;SDS_P2;PMS_P1;PMS_P2;Temp;Humidity;BMP_temperature;BMP_pressure;BME280_temperature;BME280_humidity;BME280_pressure;Samples;Min_cycle;Max_cycle;Signal;HPM_P1;HPM_P2
2024/01/11 00:01:26;;;;;;;37.15;20.55;;;-4.60;99.90;;;;;;4955585;28;20162;-69
2024/01/11 00:03:52;;;;;;;35.55;19.17;;;-4.50;99.90;;;;;;4969294;28;20385;-68
2024/01/11 00:06:17;;;;;;;37.72;20.00;;;-4.60;99.90;;;;;;4969953;28;20554;-68
2024/01/11 00:08:43;;;;;;;35.42;18.55;;;-4.80;99.90;;;;;;4965631;28;20035;-63
2024/01/11 00:11:09;;;;;;;34.70;19.50;;;-4.80;99.90;;;;;;4964806;28;20035;-64
2024/01/11 00:13:35;;;;;;;32.97;18.42;;;-4.80;99.90;;;;;;4965520;28;20049;-64
2024/01/11 00:16:00;;;;;;;45.08;25.80;;;-4.70;99.90;;;;;;4970262;28;20027;-64
2024/01/11 00:18:26;;;;;;;45.50;23.95;;;-4.60;99.90;;;;;;4954576;28;20150;-64
2024/01/11 00:20:51;;;;;;;47.60;23.35;;;-4.60;99.90;;;;;;4966626;28;20105;-64
2024/01/11 00:23:17;;;;;;;48.30;25.23;;;-4.50;99.90;;;;;;4973078;28;20034;-65
2024/01/11 00:25:43;;;;;;;50.72;25.88;;;-4.50;99.90;;;;;;4972146;28;20063;-64
2024/01/11 00:28:09;;;;;;;39.50;21.88;;;-4.40;99.90;;;;;;4968309;28;20073;-64
2024/01/11 00:30:34;;;;;;;38.88;18.50;;;-4.40;99.90;;;;;;4971118;28;20043;-64
2024/01/11 00:33:00;;;;;;;22.90;13.00;;;-4.40;99.90;;;;;;4975681;28;20058;-64
2024/01/11 00:35:25;;;;;;;32.53;16.73;;;-4.60;99.90;;;;;;4967145;28;20440;-64
2024/01/11 00:37:51;;;;;;;43.38;21.20;;;-4.80;99.90;;;;;;4966070;28;20359;-64
2024/01/11 00:40:17;;;;;;;43.28;24.40;;;-4.70;99.90;;;;;;4971614;28;20034;-62
2024/01/11 00:42:42;;;;;;;45.85;23.42;;;-4.70;99.90;;;;;;4972380;28;20034;-64
2024/01/11 00:45:08;;;;;;;45.33;24.25;;;-4.70;99.90;;;;;;4974414;28;20038;-64
2024/01/11 00:47:34;;;;;;;53.92;28.52;;;-4.60;99.90;;;;;;4964364;28;20058;-63
2024/01/11 00:49:59;;;;;;;50.97;25.90;;;-4.60;99.90;;;;;;4965122;28;20034;-63
2024/01/11 00:52:25;;;;;;;53.97;26.85;;;-4.60;99.90;;;;;;4970419;28;20507;-64
2024/01/11 00:54:51;;;;;;;39.60;21.08;;;-4.60;99.90;;;;;;4966930;28;20040;-62
2024/01/11 00:57:16;;;;;;;27.25;13.93;;;-4.60;99.90;;;;;;4969730;28;20145;-64
2024/01/11 00:59:42;;;;;;;14.43;8.23;;;-4.70;99.90;;;;;;4963981;28;20022;-64
2024/01/11 01:02:08;;;;;;;22.35;12.27;;;-4.80;99.90;;;;;;4969763;28;20324;-64
2024/01/11 01:04:37;;;;;;;26.58;13.90;;;-5.00;99.90;;;;;;4968367;28;20113;-63
2024/01/11 01:07:02;;;;;;;28.88;14.73;;;-5.20;99.90;;;;;;4965884;28;20257;-63
2024/01/11 01:09:28;;;;;;;27.42;14.52;;;-5.10;99.90;;;;;;4961477;28;20027;-65
2024/01/11 01:11:54;;;;;;;57.30;26.83;;;-5.20;99.90;;;;;;4968234;28;20065;-63
2024/01/11 01:14:19;;;;;;;75.40;38.70;;;-5.10;99.90;;;;;;4966875;28;20109;-63
2024/01/11 01:16:45;;;;;;;68.63;34.92;;;-5.00;99.90;;;;;;4965484;28;20031;-63
2024/01/11 01:19:11;;;;;;;67.13;35.00;;;-4.80;99.90;;;;;;4968264;28;20467;-64
2024/01/11 01:21:36;;;;;;;49.65;26.02;;;-4.70;99.90;;;;;;4969501;28;20057;-62
2024/01/11 01:24:02;;;;;;;48.20;23.45;;;-4.80;99.90;;;;;;4969534;28;20060;-63
2024/01/11 01:26:28;;;;;;;50.70;23.58;;;-4.80;99.90;;;;;;4959785;28;20506;-63
2024/01/11 01:28:54;;;;;;;50.63;22.73;;;-5.20;99.90;;;;;;4972344;28;20076;-62
2024/01/11 01:31:21;;;;;;;53.78;25.77;;;-5.30;99.90;;;;;;4977392;28;20816;-63
2024/01/11 01:33:47;;;;;;;73.30;31.90;;;-5.20;99.90;;;;;;4985360;28;20141;-63
2024/01/11 01:36:12;;;;;;;70.30;29.85;;;-5.20;99.90;;;;;;4971109;28;20989;-63
2024/01/11 01:38:38;;;;;;;54.83;25.35;;;-5.10;99.90;;;;;;4969346;28;20030;-67
2024/01/11 01:41:04;;;;;;;64.60;29.23;;;-5.00;99.90;;;;;;4965061;28;20057;-67
2024/01/11 01:43:29;;;;;;;73.18;30.45;;;-4.90;99.90;;;;;;4971247;28;20033;-67
2024/01/11 01:45:55;;;;;;;60.45;27.50;;;-4.80;99.90;;;;;;4968781;28;20193;-67
2024/01/11 01:48:21;;;;;;;44.40;22.90;;;-4.70;99.90;;;;;;4974306;28;20050;-68
2024/01/11 01:50:51;;;;;;;42.72;22.85;;;-4.80;99.90;;;;;;4963693;28;20045;-67
2024/01/11 01:53:19;;;;;;;34.95;21.25;;;-4.90;99.90;;;;;;4969397;28;20084;-68
2024/01/11 01:55:45;;;;;;;40.67;21.65;;;-5.20;99.90;;;;;;4968351;28;20018;-64
2024/01/11 01:58:12;;;;;;;43.22;22.10;;;-5.20;99.90;;;;;;4964629;28;20066;-63
2024/01/11 02:00:38;;;;;;;45.72;23.85;;;-5.20;99.90;;;;;;4967827;28;20027;-62
2024/01/11 02:03:04;;;;;;;43.45;23.17;;;-5.20;99.90;;;;;;4965087;28;20041;-63
2024/01/11 02:05:30;;;;;;;57.22;26.73;;;-5.20;99.90;;;;;;4967467;28;20030;-63
2024/01/11 02:07:59;;;;;;;61.35;29.13;;;-5.10;99.90;;;;;;4948826;28;20492;-63
2024/01/11 02:10:25;;;;;;;46.70;24.50;;;-5.00;99.90;;;;;;4967192;28;20226;-63
2024/01/11 02:12:50;;;;;;;37.25;20.35;;;-5.00;99.90;;;;;;4971368;28;20042;-63
2024/01/11 02:15:16;;;;;;;44.92;21.40;;;-5.10;99.90;;;;;;4965659;28;20494;-68
2024/01/11 02:17:42;;;;;;;32.33;18.00;;;-5.30;99.90;;;;;;4963176;28;20045;-63
2024/01/11 02:20:08;;;;;;;27.02;16.08;;;-5.40;99.90;;;;;;4962457;28;20038;-62
2024/01/11 02:22:41;;;;;;;30.20;16.02;;;-5.30;99.90;;;;;;4967184;28;20042;-62
2024/01/11 02:25:07;;;;;;;31.33;15.32;;;-5.40;99.90;;;;;;4965073;28;20054;-62
2024/01/11 02:27:48;;;;;;;31.88;16.60;;;-5.40;99.90;;;;;;4967489;28;20476;-62
2024/01/11 02:30:14;;;;;;;32.88;16.92;;;-5.30;99.90;;;;;;4963317;28;20027;-62
2024/01/11 02:32:40;;;;;;;25.88;14.70;;;-5.30;99.90;;;;;;4965409;28;20042;-62
2024/01/11 02:35:06;;;;;;;25.45;13.95;;;-5.30;99.90;;;;;;4964461;28;20495;-62
2024/01/11 02:37:32;;;;;;;28.98;16.00;;;-5.30;99.90;;;;;;4965367;28;20060;-61
2024/01/11 02:39:58;;;;;;;26.00;14.15;;;-5.30;99.90;;;;;;4967850;28;20050;-62
2024/01/11 02:42:24;;;;;;;22.30;12.90;;;-5.30;99.90;;;;;;4962265;28;20399;-62
2024/01/11 02:44:49;;;;;;;30.35;15.43;;;-5.50;99.90;;;;;;4961615;28;20044;-62
2024/01/11 02:47:15;;;;;;;27.90;14.00;;;-5.70;99.90;;;;;;4966553;28;20596;-62
2024/01/11 02:49:40;;;;;;;30.92;16.67;;;-5.70;99.90;;;;;;4969853;28;20475;-63
2024/01/11 02:52:06;;;;;;;30.08;15.38;;;-5.60;99.90;;;;;;4968067;28;20038;-63
2024/01/11 02:54:32;;;;;;;34.78;16.30;;;-5.50;99.90;;;;;;4965211;28;20029;-63
2024/01/11 02:56:57;;;;;;;29.35;16.27;;;-5.40;99.90;;;;;;4965816;28;20077;-63
2024/01/11 02:59:23;;;;;;;26.25;15.65;;;-5.30;99.90;;;;;;4966581;28;20092;-63
2024/01/11 03:01:49;;;;;;;31.60;16.00;;;-5.30;99.90;;;;;;4965162;28;20268;-63
2024/01/11 03:04:16;;;;;;;27.50;14.60;;;-5.30;99.90;;;;;;4971687;28;20487;-61
2024/01/11 03:06:42;;;;;;;25.13;13.90;;;-5.20;99.90;;;;;;4968526;28;20061;-62
2024/01/11 03:09:08;;;;;;;25.40;14.18;;;-5.20;99.90;;;;;;4973049;28;20509;-62
2024/01/11 03:11:33;;;;;;;22.67;13.23;;;-5.20;99.90;;;;;;4961548;28;20483;-62
2024/01/11 03:13:59;;;;;;;22.13;13.00;;;-5.20;99.90;;;;;;4969377;28;20442;-62
2024/01/11 03:16:24;;;;;;;23.45;13.23;;;-5.10;99.90;;;;;;4966907;28;20094;-62
2024/01/11 03:18:50;;;;;;;27.98;14.48;;;-5.20;99.90;;;;;;4963659;28;20125;-63
2024/01/11 03:21:15;;;;;;;24.30;13.10;;;-5.20;99.90;;;;;;4951991;28;21483;-61
2024/01/11 03:23:41;;;;;;;25.73;13.10;;;-5.20;99.90;;;;;;4966532;28;20082;-63
2024/01/11 03:26:17;;;;;;;27.73;14.32;;;-5.30;99.90;;;;;;4962473;28;20129;-62
2024/01/11 03:28:43;;;;;;;25.77;14.38;;;-5.20;99.90;;;;;;4965653;28;20038;-63
2024/01/11 03:31:10;;;;;;;26.88;15.30;;;-5.20;99.90;;;;;;4964639;28;20094;-63
2024/01/11 03:33:35;;;;;;;35.28;17.23;;;-5.20;99.90;;;;;;4963073;28;23166;-63
2024/01/11 03:36:11;;;;;;;32.05;16.17;;;-5.20;99.90;;;;;;4965747;28;20034;-63
2024/01/11 03:38:37;;;;;;;24.98;13.20;;;-5.30;99.90;;;;;;4968755;28;20040;-63
2024/01/11 03:41:09;;;;;;;32.35;16.08;;;-5.30;99.90;;;;;;4961741;28;20030;-63
2024/01/11 03:43:35;;;;;;;24.75;15.68;;;-5.30;99.90;;;;;;4968024;28;20703;-63
2024/01/11 03:46:01;;;;;;;27.50;15.00;;;-5.30;99.90;;;;;;4961444;28;20399;-64
2024/01/11 03:48:27;;;;;;;29.75;15.70;;;-5.30;99.90;;;;;;4964380;28;20042;-63
2024/01/11 03:50:52;;;;;;;30.70;16.25;;;-5.30;99.90;;;;;;4965727;28;20027;-63
2024/01/11 03:53:18;;;;;;;31.05;15.85;;;-5.30;99.90;;;;;;4964182;28;20077;-64
2024/01/11 03:55:44;;;;;;;30.17;16.60;;;-5.30;99.90;;;;;;4966193;28;20105;-63
2024/01/11 03:58:09;;;;;;;29.23;15.77;;;-5.30;99.90;;;;;;4966250;28;20034;-63
2024/01/11 04:00:35;;;;;;;27.85;15.80;;;-5.20;99.90;;;;;;4961326;28;20378;-63
2024/01/11 04:03:01;;;;;;;31.08;16.35;;;-5.30;99.90;;;;;;4960947;28;20178;-63
2024/01/11 04:05:27;;;;;;;26.58;14.23;;;-5.30;99.90;;;;;;4965445;28;20029;-68
2024/01/11 04:07:53;;;;;;;17.65;9.70;;;-5.40;99.90;;;;;;4962828;28;20039;-62
2024/01/11 04:10:18;;;;;;;5.10;3.20;;;-5.50;99.90;;;;;;4964929;28;20084;-63
2024/01/11 04:12:44;;;;;;;6.05;3.78;;;-5.50;99.90;;;;;;4963402;28;20284;-63
2024/01/11 04:15:14;;;;;;;3.92;2.72;;;-5.50;99.90;;;;;;4963018;28;20027;-63
2024/01/11 04:17:39;;;;;;;3.67;2.40;;;-5.50;99.90;;;;;;4962174;28;20043;-62
2024/01/11 04:20:08;;;;;;;3.40;2.55;;;-5.60;99.90;;;;;;4961881;28;20053;-63
2024/01/11 04:22:34;;;;;;;6.20;2.85;;;-5.60;99.90;;;;;;4962285;28;20034;-63
2024/01/11 04:25:00;;;;;;;4.45;2.85;;;-5.70;99.90;;;;;;4966548;28;20061;-68
2024/01/11 04:27:26;;;;;;;6.88;2.78;;;-5.70;99.90;;;;;;4961194;28;20435;-68
2024/01/11 04:29:51;;;;;;;6.57;3.08;;;-5.60;99.90;;;;;;4965244;28;20034;-68
2024/01/11 04:32:17;;;;;;;4.63;2.97;;;-5.60;99.90;;;;;;4961816;28;20036;-68
2024/01/11 04:34:43;;;;;;;8.27;4.32;;;-5.60;99.90;;;;;;4965703;28;20153;-68
2024/01/11 04:37:08;;;;;;;7.72;4.32;;;-5.50;99.90;;;;;;4959187;28;20125;-68
2024/01/11 04:39:34;;;;;;;7.90;3.95;;;-5.50;99.90;;;;;;4962949;28;20030;-68
2024/01/11 04:42:00;;;;;;;6.85;4.22;;;-5.50;99.90;;;;;;4963805;28;20090;-68
2024/01/11 04:44:26;;;;;;;11.77;6.65;;;-5.40;99.90;;;;;;4968129;28;20037;-68
2024/01/11 04:46:52;;;;;;;10.10;5.10;;;-5.30;99.90;;;;;;4967592;28;20597;-69
2024/01/11 04:49:17;;;;;;;15.50;8.23;;;-5.30;99.90;;;;;;4969484;28;20026;-68
2024/01/11 04:51:43;;;;;;;14.35;8.35;;;-5.30;99.90;;;;;;4967722;28;20041;-68
2024/01/11 04:54:08;;;;;;;8.80;4.80;;;-5.40;99.90;;;;;;4965900;28;20023;-68
2024/01/11 04:56:34;;;;;;;7.70;4.05;;;-5.40;99.90;;;;;;4967527;28;20061;-68
2024/01/11 04:59:00;;;;;;;12.55;6.38;;;-5.40;99.90;;;;;;4961537;28;20046;-68
2024/01/11 05:01:26;;;;;;;33.45;14.70;;;-5.40;99.90;;;;;;4963794;28;20042;-68
2024/01/11 05:03:51;;;;;;;23.15;10.63;;;-5.40;99.90;;;;;;4968453;28;20568;-68
2024/01/11 05:06:22;;;;;;;23.80;12.63;;;-5.50;99.90;;;;;;4970595;28;20065;-67
2024/01/11 05:08:51;;;;;;;19.10;10.77;;;-5.50;99.90;;;;;;4966866;28;20182;-68
2024/01/11 05:11:24;;;;;;;20.13;11.00;;;-5.50;99.90;;;;;;4966188;28;20030;-68
2024/01/11 05:13:50;;;;;;;18.52;9.93;;;-5.60;99.90;;;;;;4970738;28;20038;-68
2024/01/11 05:16:29;;;;;;;22.83;10.38;;;-5.60;99.90;;;;;;4966931;28;21594;-68
2024/01/11 05:18:56;;;;;;;17.60;9.25;;;-5.60;99.90;;;;;;4968693;28;20737;-63
2024/01/11 05:21:22;;;;;;;19.00;10.10;;;-5.60;99.90;;;;;;4968038;28;20041;-63
2024/01/11 05:23:48;;;;;;;13.45;6.47;;;-5.70;99.90;;;;;;4970493;28;21799;-63
2024/01/11 05:26:16;;;;;;;8.65;4.93;;;-5.70;99.90;;;;;;4964904;28;20133;-62
2024/01/11 05:28:41;;;;;;;15.60;7.82;;;-5.90;99.90;;;;;;4968729;28;20057;-63
2024/01/11 05:31:12;;;;;;;41.42;18.88;;;-6.00;99.90;;;;;;4965021;28;20054;-63
2024/01/11 05:33:38;;;;;;;72.82;30.70;;;-5.80;99.90;;;;;;4964750;28;20405;-64
2024/01/11 05:36:05;;;;;;;81.55;32.90;;;-5.70;99.90;;;;;;4970209;28;20034;-63
2024/01/11 05:38:30;;;;;;;98.72;41.88;;;-5.70;99.90;;;;;;4966261;28;20030;-63
2024/01/11 05:40:56;;;;;;;94.88;41.20;;;-5.90;99.90;;;;;;4971546;28;20534;-63
2024/01/11 05:43:23;;;;;;;92.28;39.40;;;-5.80;99.90;;;;;;4968512;28;20459;-63
2024/01/11 05:45:49;;;;;;;102.20;40.70;;;-5.70;99.90;;;;;;4968718;28;20346;-63
2024/01/11 05:48:15;;;;;;;84.80;32.20;;;-5.70;99.90;;;;;;4967936;28;20477;-63
2024/01/11 05:50:41;;;;;;;96.63;35.80;;;-5.70;99.90;;;;;;4961161;28;20019;-63
2024/01/11 05:53:07;;;;;;;91.57;37.25;;;-5.70;99.90;;;;;;4968293;28;20041;-63
2024/01/11 05:55:32;;;;;;;44.25;19.67;;;-5.70;99.90;;;;;;4972890;28;20045;-63
2024/01/11 05:57:58;;;;;;;26.33;11.73;;;-5.70;99.90;;;;;;4967319;28;20169;-63
2024/01/11 06:00:23;;;;;;;21.85;10.30;;;-5.70;99.90;;;;;;4966783;28;20092;-63
2024/01/11 06:02:49;;;;;;;24.80;10.43;;;-5.70;99.90;;;;;;4964868;28;20551;-63
2024/01/11 06:05:15;;;;;;;48.75;19.98;;;-5.70;99.90;;;;;;4959368;28;20027;-63
2024/01/11 06:07:41;;;;;;;47.90;22.90;;;-5.70;99.90;;;;;;4963848;28;20070;-63
2024/01/11 06:10:08;;;;;;;46.17;19.83;;;-5.70;99.90;;;;;;4961235;28;20031;-63
2024/01/11 06:12:34;;;;;;;27.33;13.38;;;-5.70;99.90;;;;;;4965848;28;20605;-68
2024/01/11 06:15:01;;;;;;;23.15;11.80;;;-5.70;99.90;;;;;;4962975;28;20467;-63
2024/01/11 06:17:27;;;;;;;20.10;10.68;;;-5.80;99.90;;;;;;4965237;28;20031;-63
2024/01/11 06:19:52;;;;;;;25.50;12.55;;;-5.90;99.90;;;;;;4967744;28;20050;-63
2024/01/11 06:22:18;;;;;;;29.70;13.57;;;-6.10;99.90;;;;;;4969410;28;20145;-63
2024/01/11 06:24:44;;;;;;;28.10;14.63;;;-6.30;99.90;;;;;;4961000;28;20173;-63
2024/01/11 06:27:10;;;;;;;27.52;14.70;;;-6.30;99.90;;;;;;4965425;28;20454;-63
2024/01/11 06:29:35;;;;;;;41.78;19.92;;;-6.20;99.90;;;;;;4965096;28;20067;-63
2024/01/11 06:32:02;;;;;;;34.90;17.10;;;-6.10;99.90;;;;;;4968324;28;20038;-63
2024/01/11 06:34:28;;;;;;;33.28;15.60;;;-6.00;99.90;;;;;;4964187;28;20911;-62
2024/01/11 06:36:55;;;;;;;42.25;21.13;;;-5.90;99.90;;;;;;4966684;28;20026;-62
2024/01/11 06:39:20;;;;;;;38.03;19.58;;;-5.80;99.90;;;;;;4965655;28;20026;-62
2024/01/11 06:41:46;;;;;;;48.15;22.50;;;-5.70;99.90;;;;;;4960471;28;20066;-62
2024/01/11 06:44:12;;;;;;;47.08;23.02;;;-5.70;99.90;;;;;;4965859;28;20402;-62
2024/01/11 06:46:40;;;;;;;48.42;21.85;;;-5.70;99.90;;;;;;4964573;28;20030;-62
2024/01/11 06:49:06;;;;;;;38.53;19.98;;;-5.60;99.90;;;;;;4971759;28;20066;-62
2024/01/11 06:51:32;;;;;;;53.63;24.25;;;-5.60;99.90;;;;;;4970212;28;20117;-62
2024/01/11 06:53:59;;;;;;;42.40;19.40;;;-5.50;99.90;;;;;;4971174;28;20044;-68
2024/01/11 06:56:25;;;;;;;32.22;15.50;;;-5.50;99.90;;;;;;4970674;28;20038;-67
2024/01/11 06:58:51;;;;;;;32.40;15.30;;;-5.60;99.90;;;;;;4966649;28;20328;-67
2024/01/11 07:01:17;;;;;;;51.15;28.13;;;-6.00;99.90;;;;;;4965531;28;20022;-66
2024/01/11 07:03:43;;;;;;;45.15;19.48;;;-6.00;99.90;;;;;;4969051;28;20041;-67
2024/01/11 07:06:09;;;;;;;75.57;39.60;;;-6.10;99.90;;;;;;4972119;28;20455;-67
2024/01/11 07:08:35;;;;;;;99.88;46.92;;;-6.00;99.90;;;;;;4972373;28;20076;-67
2024/01/11 07:11:04;;;;;;;128.63;60.78;;;-5.80;99.90;;;;;;4965828;28;20034;-62
2024/01/11 07:13:31;;;;;;;114.28;55.92;;;-5.60;99.90;;;;;;4972703;28;20061;-62
2024/01/11 07:15:57;;;;;;;111.55;54.67;;;-5.50;99.90;;;;;;4970077;28;20376;-62
2024/01/11 07:18:23;;;;;;;110.97;53.58;;;-5.50;99.90;;;;;;4969952;28;20058;-62
2024/01/11 07:20:50;;;;;;;102.60;52.10;;;-5.40;99.90;;;;;;4973627;28;20031;-62
2024/01/11 07:23:16;;;;;;;95.50;46.75;;;-5.30;99.90;;;;;;4972466;28;20026;-62
2024/01/11 07:25:41;;;;;;;91.30;44.88;;;-5.20;99.90;;;;;;4974855;28;20034;-62
2024/01/11 07:28:07;;;;;;;79.40;37.30;;;-5.20;99.90;;;;;;4973137;28;20580;-67
2024/01/11 07:30:33;;;;;;;111.93;47.58;;;-5.50;99.90;;;;;;4972584;28;20075;-67
2024/01/11 07:32:58;;;;;;;107.90;49.92;;;-5.80;99.90;;;;;;4970601;28;20505;-68
2024/01/11 07:35:24;;;;;;;113.80;50.65;;;-5.70;99.90;;;;;;4974480;28;20065;-67
2024/01/11 07:37:50;;;;;;;105.03;53.40;;;-5.40;99.90;;;;;;4972058;28;20745;-67
2024/01/11 07:40:16;;;;;;;106.90;49.40;;;-5.20;99.90;;;;;;4975541;28;20025;-67
2024/01/11 07:42:42;;;;;;;87.97;45.13;;;-5.30;99.90;;;;;;4973389;28;21276;-68
2024/01/11 07:45:11;;;;;;;82.85;42.15;;;-5.20;99.90;;;;;;4972714;28;20050;-68
2024/01/11 07:47:38;;;;;;;79.72;40.58;;;-5.00;99.90;;;;;;4968689;28;20046;-62
2024/01/11 07:50:06;;;;;;;89.57;46.45;;;-4.80;99.90;;;;;;4968744;28;20472;-62
2024/01/11 07:52:36;;;;;;;87.00;42.95;;;-4.60;99.90;;;;;;4974833;28;20213;-63
2024/01/11 07:55:07;;;;;;;89.07;43.92;;;-4.50;99.90;;;;;;4967764;28;20146;-62
2024/01/11 07:57:36;;;;;;;92.18;46.35;;;-4.20;99.90;;;;;;4973748;28;20026;-63
2024/01/11 08:00:08;;;;;;;82.70;45.55;;;-3.90;99.90;;;;;;4972031;28;20022;-62
2024/01/11 08:02:35;;;;;;;89.00;45.58;;;-3.80;99.90;;;;;;4972011;28;20037;-62
2024/01/11 08:05:01;;;;;;;87.47;45.53;;;-3.90;99.90;;;;;;4968847;28;20398;-62
2024/01/11 08:07:30;;;;;;;92.60;47.67;;;-4.00;99.90;;;;;;4957085;28;20062;-67
2024/01/11 08:09:56;;;;;;;79.75;43.35;;;-3.90;99.90;;;;;;4964560;28;20793;-68
2024/01/11 08:12:21;;;;;;;84.43;43.53;;;-3.60;99.90;;;;;;4971098;28;20099;-68
2024/01/11 08:14:48;;;;;;;80.82;46.30;;;-3.50;99.90;;;;;;4970212;28;20061;-68
2024/01/11 08:17:14;;;;;;;80.60;43.03;;;-3.20;99.90;;;;;;4967455;28;20080;-68
2024/01/11 08:19:41;;;;;;;77.80;41.88;;;-3.00;99.90;;;;;;4970455;28;20038;-68
2024/01/11 08:22:06;;;;;;;58.80;33.55;;;-2.70;99.90;;;;;;4968581;28;20041;-67
2024/01/11 08:24:34;;;;;;;60.95;29.98;;;-2.40;99.90;;;;;;4970739;28;20039;-68
2024/01/11 08:27:00;;;;;;;50.17;28.58;;;-2.50;99.90;;;;;;4973430;28;20097;-68
2024/01/11 08:29:26;;;;;;;43.00;23.85;;;-2.20;99.90;;;;;;4969744;28;20034;-69
2024/01/11 08:31:51;;;;;;;119.47;25.98;;;-2.00;99.90;;;;;;4973049;28;20026;-68
2024/01/11 08:34:17;;;;;;;41.28;22.45;;;-1.70;99.90;;;;;;4972912;28;20386;-67
2024/01/11 08:36:42;;;;;;;43.35;21.73;;;-1.50;99.90;;;;;;4967670;28;20116;-67
2024/01/11 08:39:08;;;;;;;35.50;20.55;;;-1.40;99.90;;;;;;4970591;28;20390;-67
2024/01/11 08:41:40;;;;;;;44.78;28.50;;;-1.20;99.90;;;;;;4968591;28;20037;-66
2024/01/11 08:44:06;;;;;;;45.75;29.45;;;-1.20;99.90;;;;;;4968643;28;20026;-67
2024/01/11 08:46:35;;;;;;;98.90;41.30;;;-1.10;99.90;;;;;;4968322;28;20416;-68
2024/01/11 08:49:03;;;;;;;47.35;25.75;;;-0.90;99.90;;;;;;4974278;28;20038;-66
2024/01/11 08:51:29;;;;;;;56.67;32.83;;;-0.80;99.90;;;;;;4969345;28;20093;-66
2024/01/11 08:53:55;;;;;;;53.42;31.02;;;-0.80;99.90;;;;;;4955769;28;20585;-66
2024/01/11 08:56:21;;;;;;;58.35;33.17;;;-0.80;99.90;;;;;;4966313;28;20086;-66
2024/01/11 08:58:48;;;;;;;53.58;31.02;;;-0.90;99.90;;;;;;4969568;28;20043;-67
2024/01/11 09:01:14;;;;;;;48.72;30.58;;;-0.80;99.90;;;;;;4967953;28;20058;-62
2024/01/11 09:03:39;;;;;;;54.17;25.42;;;-0.60;99.90;;;;;;4968351;28;20089;-62
2024/01/11 09:06:05;;;;;;;65.70;24.63;;;-0.40;99.90;;;;;;4971314;28;20039;-62
2024/01/11 09:08:31;;;;;;;47.13;26.38;;;-0.20;99.90;;;;;;4968605;28;20047;-62
2024/01/11 09:10:59;;;;;;;47.55;26.67;;;-0.10;99.90;;;;;;4971237;28;20026;-62
2024/01/11 09:13:27;;;;;;;39.55;24.83;;;0.20;99.90;;;;;;4965270;28;20038;-62
2024/01/11 09:15:53;;;;;;;30.80;20.58;;;0.30;99.90;;;;;;4971107;28;20560;-62
2024/01/11 09:18:19;;;;;;;31.63;19.90;;;0.40;99.90;;;;;;4974618;28;20337;-63
2024/01/11 09:20:45;;;;;;;32.22;19.75;;;0.50;99.90;;;;;;4971534;28;20038;-68
2024/01/11 09:23:11;;;;;;;40.42;21.50;;;0.20;99.90;;;;;;4980555;28;20053;-68
2024/01/11 09:25:37;;;;;;;26.70;15.25;;;0.40;99.90;;;;;;4976489;28;20077;-67
2024/01/11 09:28:03;;;;;;;36.75;20.48;;;0.60;99.90;;;;;;4973282;28;20149;-67
2024/01/11 09:30:29;;;;;;;18.95;11.13;;;0.80;99.90;;;;;;4974255;28;20022;-68
2024/01/11 09:32:55;;;;;;;14.70;8.73;;;1.00;99.90;;;;;;4973607;28;20374;-68
2024/01/11 09:35:22;;;;;;;14.18;8.60;;;0.80;99.90;;;;;;4977643;28;20026;-67
2024/01/11 09:37:49;;;;;;;6.72;4.22;;;0.90;99.90;;;;;;4972174;28;20026;-66
2024/01/11 09:40:15;;;;;;;13.07;6.13;;;0.90;99.90;;;;;;4975858;28;20030;-68
2024/01/11 09:42:40;;;;;;;6.28;4.07;;;0.80;99.90;;;;;;4976691;28;20037;-67
2024/01/11 09:45:10;;;;;;;5.25;3.53;;;0.80;99.90;;;;;;4979176;28;20038;-68
2024/01/11 09:47:36;;;;;;;8.70;7.00;;;0.70;99.90;;;;;;4978892;28;20043;-69
2024/01/11 09:50:06;;;;;;;6.50;4.05;;;0.80;99.90;;;;;;4966111;28;20072;-68
2024/01/11 09:52:32;;;;;;;7.65;5.95;;;0.80;99.90;;;;;;4969687;28;20039;-68
2024/01/11 09:55:01;;;;;;;7.55;4.43;;;0.80;99.90;;;;;;4970903;28;20082;-68
2024/01/11 09:57:32;;;;;;;6.53;4.72;;;0.80;99.90;;;;;;4973869;28;20030;-62
2024/01/11 09:59:58;;;;;;;6.33;3.67;;;0.90;99.90;;;;;;4969863;28;20031;-62
2024/01/11 10:02:26;;;;;;;4.85;3.30;;;0.90;99.90;;;;;;4966111;28;20053;-63
2024/01/11 10:04:52;;;;;;;5.13;3.33;;;1.00;99.90;;;;;;4970183;28;20080;-62
2024/01/11 10:07:21;;;;;;;5.50;3.80;;;1.10;99.90;;;;;;4969044;28;20058;-62
2024/01/11 10:09:47;;;;;;;4.80;2.83;;;1.10;99.90;;;;;;4968087;28;20057;-62
2024/01/11 10:12:13;;;;;;;5.05;3.20;;;1.10;99.20;;;;;;4967891;28;20153;-62
2024/01/11 10:14:39;;;;;;;5.28;3.50;;;1.10;99.90;;;;;;4960366;28;20026;-63
2024/01/11 10:17:05;;;;;;;4.97;3.15;;;1.20;98.90;;;;;;4964733;28;20058;-63
2024/01/11 10:19:30;;;;;;;5.05;3.50;;;1.20;97.10;;;;;;4950885;28;20078;-62
2024/01/11 10:21:58;;;;;;;5.32;3.47;;;1.30;97.10;;;;;;4967419;28;20030;-63
2024/01/11 10:24:26;;;;;;;5.53;3.42;;;1.30;97.20;;;;;;4964513;28;20034;-63
2024/01/11 10:26:57;;;;;;;5.10;3.70;;;1.40;97.10;;;;;;4968739;28;20041;-62
2024/01/11 10:29:23;;;;;;;4.63;3.10;;;1.50;96.50;;;;;;4965412;28;20035;-62
2024/01/11 10:31:50;;;;;;;4.22;3.22;;;1.50;96.60;;;;;;4967520;28;20282;-62
2024/01/11 10:34:16;;;;;;;4.70;3.03;;;1.60;96.80;;;;;;4972528;28;20034;-62
2024/01/11 10:36:42;;;;;;;5.53;3.38;;;1.70;96.60;;;;;;4968262;28;20045;-62
2024/01/11 10:39:10;;;;;;;3.90;2.80;;;1.80;96.70;;;;;;4968369;28;20038;-63
2024/01/11 10:41:49;;;;;;;4.43;3.17;;;1.90;95.20;;;;;;4968476;28;20026;-62
2024/01/11 10:44:22;;;;;;;4.35;3.10;;;1.80;95.30;;;;;;4970527;28;20073;-63
2024/01/11 10:46:49;;;;;;;4.88;3.33;;;1.80;94.80;;;;;;4968258;28;20997;-63
2024/01/11 10:49:19;;;;;;;5.22;3.15;;;1.90;94.50;;;;;;4965292;28;20450;-62
2024/01/11 10:52:01;;;;;;;6.03;4.13;;;1.90;94.60;;;;;;4964916;28;20030;-63
2024/01/11 10:54:28;;;;;;;6.15;3.55;;;2.00;94.30;;;;;;4965265;28;20073;-62
2024/01/11 10:56:55;;;;;;;5.25;3.90;;;2.00;93.90;;;;;;4968419;28;20046;-62
2024/01/11 10:59:25;;;;;;;8.07;3.78;;;2.00;93.90;;;;;;4968366;28;20080;-61
2024/01/11 11:01:57;;;;;;;8.45;3.90;;;2.10;92.70;;;;;;4966854;28;20046;-62
2024/01/11 11:04:23;;;;;;;9.48;4.38;;;2.10;93.80;;;;;;4969484;28;20505;-62
2024/01/11 11:06:54;;;;;;;6.75;4.30;;;2.00;93.00;;;;;;4974450;28;20043;-63
2024/01/11 11:09:21;;;;;;;8.38;4.97;;;1.90;93.20;;;;;;4972626;28;20042;-62
2024/01/11 11:11:47;;;;;;;9.15;5.03;;;1.80;92.80;;;;;;4973816;28;20037;-62
2024/01/11 11:14:15;;;;;;;6.07;4.70;;;1.80;93.40;;;;;;4976678;28;20199;-63
2024/01/11 11:16:42;;;;;;;9.73;5.47;;;1.80;94.00;;;;;;4975103;28;20034;-62
2024/01/11 11:19:08;;;;;;;6.40;4.50;;;1.80;94.60;;;;;;4975713;28;20041;-63
2024/01/11 11:21:42;;;;;;;9.52;5.13;;;1.80;93.50;;;;;;4977197;28;20038;-62
2024/01/11 11:24:08;;;;;;;9.80;6.53;;;1.90;94.10;;;;;;4972205;28;20038;-62
2024/01/11 11:26:35;;;;;;;8.07;5.60;;;2.00;93.80;;;;;;4956940;28;20149;-62
2024/01/11 11:29:00;;;;;;;8.45;4.97;;;2.00;93.00;;;;;;4972968;28;20084;-63
2024/01/11 11:31:59;;;;;;;8.15;5.47;;;2.10;93.50;;;;;;4972983;28;20030;-62
2024/01/11 11:34:42;;;;;;;7.22;5.57;;;2.20;93.40;;;;;;4931335;28;20154;-63
2024/01/11 11:37:08;;;;;;;280.42;155.35;;;2.20;93.60;;;;;;4972248;28;20117;-61
2024/01/11 11:39:34;;;;;;;11.43;9.32;;;2.30;93.70;;;;;;4974545;28;20125;-62
2024/01/11 11:42:01;;;;;;;11.05;6.72;;;2.30;93.80;;;;;;4974429;28;20034;-62
2024/01/11 11:44:27;;;;;;;10.32;6.40;;;2.40;92.90;;;;;;4976850;28;20038;-63
2024/01/11 11:46:53;;;;;;;8.70;6.30;;;2.50;93.80;;;;;;4974848;28;20463;-63
2024/01/11 11:49:18;;;;;;;10.32;7.03;;;2.50;92.90;;;;;;4960740;28;20066;-62
2024/01/11 11:51:44;;;;;;;7.93;5.35;;;2.50;93.90;;;;;;4976274;28;20105;-62
2024/01/11 11:54:10;;;;;;;7.38;5.03;;;2.60;93.60;;;;;;4974736;28;20258;-64
2024/01/11 11:56:36;;;;;;;8.70;5.50;;;2.60;92.80;;;;;;4969974;28;20039;-64
2024/01/11 11:59:03;;;;;;;9.52;5.75;;;2.70;93.10;;;;;;4976699;28;20038;-64
2024/01/11 12:01:31;;;;;;;6.13;4.80;;;2.60;93.00;;;;;;4973619;28;20740;-65
2024/01/11 12:03:57;;;;;;;8.13;5.18;;;2.70;92.40;;;;;;4975478;28;20038;-68
2024/01/11 12:06:24;;;;;;;8.23;5.60;;;2.80;93.00;;;;;;4977941;28;20027;-64
2024/01/11 12:08:52;;;;;;;17.27;12.38;;;2.90;91.00;;;;;;4960446;28;20733;-65
2024/01/11 12:11:20;;;;;;;7.38;5.05;;;3.00;90.30;;;;;;4979230;28;20027;-64
2024/01/11 12:13:47;;;;;;;7.80;4.93;;;3.10;89.30;;;;;;4971730;28;20026;-64
2024/01/11 12:16:13;;;;;;;7.28;4.80;;;3.20;88.40;;;;;;4969914;28;20034;-64
2024/01/11 12:18:39;;;;;;;5.30;3.85;;;3.20;87.40;;;;;;4972885;28;20046;-64
2024/01/11 12:21:06;;;;;;;5.50;4.05;;;3.30;83.00;;;;;;4969042;28;20076;-64
2024/01/11 12:23:34;;;;;;;5.95;3.97;;;3.30;81.60;;;;;;4970872;28;20026;-65
2024/01/11 12:26:03;;;;;;;5.63;3.65;;;3.20;81.20;;;;;;4964822;28;20656;-64
2024/01/11 12:28:30;;;;;;;7.93;4.47;;;3.20;82.10;;;;;;4966796;28;20088;-64
2024/01/11 12:30:56;;;;;;;6.55;3.83;;;3.10;80.30;;;;;;4970636;28;20037;-64
2024/01/11 12:33:22;;;;;;;4.88;3.40;;;3.10;79.70;;;;;;4969747;28;20036;-63